sensor_id;sensor_type;location;lat;lon;timestamp;pressure;altitude;pressure_sealevel;temperature;humidity
76022;BME280;64718;52.124;6.226;2023-06-14T00:00:44;101499.94;;;17.74;45.01
76022;BME280;64718;52.124;6.226;2023-06-14T00:03:11;101503.03;;;17.66;44.74
76022;BME280;64718;52.124;6.226;2023-06-14T00:05:42;101497.00;;;17.64;45.25
76022;BME280;64718;52.124;6.226;2023-06-14T00:08:10;101493.06;;;17.57;45.36
76022;BME280;64718;52.124;6.226;2023-06-14T00:10:38;101498.88;;;17.48;45.96
76022;BME280;64718;52.124;6.226;2023-06-14T00:13:06;101503.69;;;17.41;46.08
76022;BME280;64718;52.124;6.226;2023-06-14T00:15:33;101502.16;;;17.37;46.12
76022;BME280;64718;52.124;6.226;2023-06-14T00:18:00;101502.41;;;17.32;46.73
76022;BME280;64718;52.124;6.226;2023-06-14T00:20:26;101497.53;;;17.26;46.88
76022;BME280;64718;52.124;6.226;2023-06-14T00:22:53;101500.63;;;17.19;47.27
76022;BME280;64718;52.124;6.226;2023-06-14T00:25:20;101502.69;;;17.14;47.41
76022;BME280;64718;52.124;6.226;2023-06-14T00:27:48;101499.47;;;17.08;47.97
76022;BME280;64718;52.124;6.226;2023-06-14T00:30:15;101511.88;;;17.06;47.96
76022;BME280;64718;52.124;6.226;2023-06-14T00:32:41;101506.78;;;17.03;47.92
76022;BME280;64718;52.124;6.226;2023-06-14T00:35:08;101510.53;;;16.99;48.07
76022;BME280;64718;52.124;6.226;2023-06-14T00:37:34;101515.03;;;16.97;48.08
76022;BME280;64718;52.124;6.226;2023-06-14T00:40:01;101510.63;;;16.98;48.70
76022;BME280;64718;52.124;6.226;2023-06-14T00:42:29;101513.78;;;16.89;48.38
76022;BME280;64718;52.124;6.226;2023-06-14T00:44:57;101510.59;;;16.84;48.74
76022;BME280;64718;52.124;6.226;2023-06-14T00:47:24;101506.53;;;16.78;49.27
76022;BME280;64718;52.124;6.226;2023-06-14T00:49:53;101516.53;;;16.71;48.64
76022;BME280;64718;52.124;6.226;2023-06-14T00:52:22;101514.91;;;16.69;49.65
76022;BME280;64718;52.124;6.226;2023-06-14T00:54:49;101518.56;;;16.66;49.12
76022;BME280;64718;52.124;6.226;2023-06-14T00:57:16;101510.69;;;16.66;49.42
76022;BME280;64718;52.124;6.226;2023-06-14T00:59:44;101509.84;;;16.66;50.04
76022;BME280;64718;52.124;6.226;2023-06-14T01:02:13;101512.59;;;16.63;50.33
76022;BME280;64718;52.124;6.226;2023-06-14T01:04:43;101519.16;;;16.56;50.31
76022;BME280;64718;52.124;6.226;2023-06-14T01:07:18;101519.75;;;16.45;51.03
76022;BME280;64718;52.124;6.226;2023-06-14T01:09:58;101519.06;;;16.41;50.86
76022;BME280;64718;52.124;6.226;2023-06-14T01:12:33;101515.59;;;16.41;50.31
76022;BME280;64718;52.124;6.226;2023-06-14T01:15:03;101519.44;;;16.35;51.31
76022;BME280;64718;52.124;6.226;2023-06-14T01:17:31;101522.97;;;16.34;51.00
76022;BME280;64718;52.124;6.226;2023-06-14T01:20:00;101519.50;;;16.34;51.44
76022;BME280;64718;52.124;6.226;2023-06-14T01:22:28;101515.44;;;16.28;52.03
76022;BME280;64718;52.124;6.226;2023-06-14T01:24:56;101518.50;;;16.21;52.23
76022;BME280;64718;52.124;6.226;2023-06-14T01:27:23;101517.88;;;16.16;52.24
76022;BME280;64718;52.124;6.226;2023-06-14T01:29:54;101514.50;;;16.13;51.55
76022;BME280;64718;52.124;6.226;2023-06-14T01:32:22;101508.66;;;16.08;52.29
76022;BME280;64718;52.124;6.226;2023-06-14T01:34:49;101510.44;;;16.08;52.26
76022;BME280;64718;52.124;6.226;2023-06-14T01:37:16;101517.53;;;16.06;52.41
76022;BME280;64718;52.124;6.226;2023-06-14T01:39:44;101524.72;;;16.02;53.59
76022;BME280;64718;52.124;6.226;2023-06-14T01:42:12;101515.34;;;15.98;53.21
76022;BME280;64718;52.124;6.226;2023-06-14T01:44:40;101521.69;;;15.94;53.11
76022;BME280;64718;52.124;6.226;2023-06-14T01:47:08;101522.78;;;15.90;52.92
76022;BME280;64718;52.124;6.226;2023-06-14T01:49:35;101518.88;;;15.81;53.63
76022;BME280;64718;52.124;6.226;2023-06-14T01:52:01;101517.59;;;15.73;53.72
76022;BME280;64718;52.124;6.226;2023-06-14T01:54:28;101523.06;;;15.68;54.46
76022;BME280;64718;52.124;6.226;2023-06-14T01:56:56;101525.09;;;15.63;53.99
76022;BME280;64718;52.124;6.226;2023-06-14T01:59:24;101517.44;;;15.59;55.16
76022;BME280;64718;52.124;6.226;2023-06-14T02:01:51;101524.66;;;15.54;55.10
76022;BME280;64718;52.124;6.226;2023-06-14T02:04:17;101512.50;;;15.52;54.98
76022;BME280;64718;52.124;6.226;2023-06-14T02:06:44;101516.88;;;15.52;54.93
76022;BME280;64718;52.124;6.226;2023-06-14T02:09:10;101513.81;;;15.44;55.00
76022;BME280;64718;52.124;6.226;2023-06-14T02:11:37;101520.22;;;15.38;56.33
76022;BME280;64718;52.124;6.226;2023-06-14T02:14:03;101520.69;;;15.29;56.88
76022;BME280;64718;52.124;6.226;2023-06-14T02:16:33;101519.09;;;15.27;57.12
76022;BME280;64718;52.124;6.226;2023-06-14T02:19:01;101518.31;;;15.25;55.91
76022;BME280;64718;52.124;6.226;2023-06-14T02:21:27;101516.69;;;15.22;55.84
76022;BME280;64718;52.124;6.226;2023-06-14T02:23:54;101514.78;;;15.26;56.58
76022;BME280;64718;52.124;6.226;2023-06-14T02:26:21;101521.09;;;15.22;56.46
76022;BME280;64718;52.124;6.226;2023-06-14T02:28:48;101522.50;;;15.11;57.97
76022;BME280;64718;52.124;6.226;2023-06-14T02:31:14;101522.41;;;15.13;57.29
76022;BME280;64718;52.124;6.226;2023-06-14T02:33:42;101523.25;;;15.13;56.87
76022;BME280;64718;52.124;6.226;2023-06-14T02:36:09;101519.03;;;15.11;56.89
76022;BME280;64718;52.124;6.226;2023-06-14T02:38:35;101520.03;;;15.08;57.77
76022;BME280;64718;52.124;6.226;2023-06-14T02:41:03;101531.59;;;15.04;57.50
76022;BME280;64718;52.124;6.226;2023-06-14T02:43:31;101525.63;;;15.01;57.68
76022;BME280;64718;52.124;6.226;2023-06-14T02:45:57;101530.00;;;15.00;58.09
76022;BME280;64718;52.124;6.226;2023-06-14T02:48:24;101530.56;;;14.90;58.21
76022;BME280;64718;52.124;6.226;2023-06-14T02:50:52;101527.22;;;14.86;58.49
76022;BME280;64718;52.124;6.226;2023-06-14T02:53:18;101533.41;;;14.85;58.97
76022;BME280;64718;52.124;6.226;2023-06-14T02:55:45;101527.22;;;14.86;58.65
76022;BME280;64718;52.124;6.226;2023-06-14T02:58:12;101528.53;;;14.77;58.03
76022;BME280;64718;52.124;6.226;2023-06-14T03:00:39;101528.63;;;14.76;59.00
76022;BME280;64718;52.124;6.226;2023-06-14T03:03:06;101533.09;;;14.74;60.14
76022;BME280;64718;52.124;6.226;2023-06-14T03:05:37;101527.00;;;14.73;60.07
76022;BME280;64718;52.124;6.226;2023-06-14T03:08:07;101541.84;;;14.73;59.69
76022;BME280;64718;52.124;6.226;2023-06-14T03:10:33;101548.88;;;14.72;59.97
76022;BME280;64718;52.124;6.226;2023-06-14T03:13:01;101545.47;;;14.70;60.00
76022;BME280;64718;52.124;6.226;2023-06-14T03:15:27;101548.78;;;14.74;59.61
76022;BME280;64718;52.124;6.226;2023-06-14T03:17:54;101551.56;;;14.71;59.31
76022;BME280;64718;52.124;6.226;2023-06-14T03:20:21;101562.19;;;14.68;58.96
76022;BME280;64718;52.124;6.226;2023-06-14T03:22:47;101562.97;;;14.70;60.73
76022;BME280;64718;52.124;6.226;2023-06-14T03:25:15;101564.81;;;14.68;58.78
76022;BME280;64718;52.124;6.226;2023-06-14T03:27:42;101565.72;;;14.67;59.43
76022;BME280;64718;52.124;6.226;2023-06-14T03:30:09;101572.59;;;14.69;59.80
76022;BME280;64718;52.124;6.226;2023-06-14T03:32:35;101570.13;;;14.66;60.66
76022;BME280;64718;52.124;6.226;2023-06-14T03:35:02;101574.28;;;14.70;59.77
76022;BME280;64718;52.124;6.226;2023-06-14T03:37:29;101571.59;;;14.72;59.59
76022;BME280;64718;52.124;6.226;2023-06-14T03:39:56;101575.91;;;14.73;59.79
76022;BME280;64718;52.124;6.226;2023-06-14T03:42:23;101581.22;;;14.71;60.50
76022;BME280;64718;52.124;6.226;2023-06-14T03:44:50;101575.19;;;14.69;60.62
76022;BME280;64718;52.124;6.226;2023-06-14T03:47:16;101578.66;;;14.70;60.81
76022;BME280;64718;52.124;6.226;2023-06-14T03:49:43;101583.84;;;14.71;61.06
76022;BME280;64718;52.124;6.226;2023-06-14T03:52:09;101577.75;;;14.71;61.63
76022;BME280;64718;52.124;6.226;2023-06-14T03:54:36;101583.63;;;14.76;60.51
76022;BME280;64718;52.124;6.226;2023-06-14T03:57:03;101591.25;;;14.80;60.27
76022;BME280;64718;52.124;6.226;2023-06-14T03:59:31;101582.31;;;14.84;60.42
76022;BME280;64718;52.124;6.226;2023-06-14T04:01:58;101586.63;;;14.85;60.75
76022;BME280;64718;52.124;6.226;2023-06-14T04:04:24;101589.19;;;14.87;60.79
76022;BME280;64718;52.124;6.226;2023-06-14T04:06:54;101592.34;;;14.94;59.91
76022;BME280;64718;52.124;6.226;2023-06-14T04:09:22;101589.44;;;15.00;60.87
76022;BME280;64718;52.124;6.226;2023-06-14T04:11:50;101595.16;;;15.08;60.70
76022;BME280;64718;52.124;6.226;2023-06-14T04:14:16;101600.03;;;15.15;59.02
76022;BME280;64718;52.124;6.226;2023-06-14T04:16:44;101599.66;;;15.23;59.50
76022;BME280;64718;52.124;6.226;2023-06-14T04:19:11;101604.28;;;15.35;59.57
76022;BME280;64718;52.124;6.226;2023-06-14T04:21:37;101612.44;;;15.46;58.97
76022;BME280;64718;52.124;6.226;2023-06-14T04:24:04;101602.16;;;15.61;59.05
76022;BME280;64718;52.124;6.226;2023-06-14T04:26:32;101613.63;;;15.75;58.87
76022;BME280;64718;52.124;6.226;2023-06-14T04:28:59;101605.41;;;15.99;57.79
76022;BME280;64718;52.124;6.226;2023-06-14T04:31:27;101610.91;;;16.27;55.98
76022;BME280;64718;52.124;6.226;2023-06-14T04:33:55;101602.38;;;16.71;55.20
76022;BME280;64718;52.124;6.226;2023-06-14T04:36:22;101611.44;;;17.27;54.04
76022;BME280;64718;52.124;6.226;2023-06-14T04:38:49;101605.34;;;18.00;51.66
76022;BME280;64718;52.124;6.226;2023-06-14T04:41:20;101616.22;;;18.66;49.33
76022;BME280;64718;52.124;6.226;2023-06-14T04:43:48;101607.44;;;19.19;47.78
76022;BME280;64718;52.124;6.226;2023-06-14T04:46:14;101616.34;;;19.43;46.71
76022;BME280;64718;52.124;6.226;2023-06-14T04:48:42;101622.56;;;19.82;46.28
76022;BME280;64718;52.124;6.226;2023-06-14T04:51:10;101622.53;;;19.56;47.11
76022;BME280;64718;52.124;6.226;2023-06-14T04:53:38;101625.31;;;19.93;45.39
76022;BME280;64718;52.124;6.226;2023-06-14T04:56:04;101629.09;;;20.02;45.02
76022;BME280;64718;52.124;6.226;2023-06-14T04:58:31;101637.44;;;20.21;45.43
76022;BME280;64718;52.124;6.226;2023-06-14T05:00:58;101637.34;;;20.10;44.36
76022;BME280;64718;52.124;6.226;2023-06-14T05:03:24;101641.47;;;20.39;45.20
76022;BME280;64718;52.124;6.226;2023-06-14T05:05:52;101643.47;;;20.48;44.32
76022;BME280;64718;52.124;6.226;2023-06-14T05:08:20;101644.94;;;20.89;43.85
76022;BME280;64718;52.124;6.226;2023-06-14T05:10:48;101638.84;;;21.00;42.85
76022;BME280;64718;52.124;6.226;2023-06-14T05:13:14;101643.09;;;21.26;42.69
76022;BME280;64718;52.124;6.226;2023-06-14T05:15:41;101641.50;;;21.24;42.80
76022;BME280;64718;52.124;6.226;2023-06-14T05:18:08;101638.47;;;21.41;42.89
76022;BME280;64718;52.124;6.226;2023-06-14T05:20:35;101643.44;;;21.57;42.07
76022;BME280;64718;52.124;6.226;2023-06-14T05:23:03;101637.53;;;22.11;41.01
76022;BME280;64718;52.124;6.226;2023-06-14T05:25:31;101645.25;;;22.25;40.98
76022;BME280;64718;52.124;6.226;2023-06-14T05:27:57;101649.84;;;22.23;39.89
76022;BME280;64718;52.124;6.226;2023-06-14T05:30:23;101650.78;;;22.33;39.74
76022;BME280;64718;52.124;6.226;2023-06-14T05:32:51;101639.84;;;22.04;40.65
76022;BME280;64718;52.124;6.226;2023-06-14T05:35:18;101642.72;;;22.23;39.75
76022;BME280;64718;52.124;6.226;2023-06-14T05:37:44;101643.22;;;22.06;40.06
76022;BME280;64718;52.124;6.226;2023-06-14T05:40:11;101651.59;;;22.78;38.92
76022;BME280;64718;52.124;6.226;2023-06-14T05:42:39;101655.69;;;23.25;38.03
76022;BME280;64718;52.124;6.226;2023-06-14T05:45:07;101656.81;;;23.12;38.21
76022;BME280;64718;52.124;6.226;2023-06-14T05:47:33;101659.84;;;23.07;38.32
76022;BME280;64718;52.124;6.226;2023-06-14T05:50:00;101655.91;;;23.33;37.55
76022;BME280;64718;52.124;6.226;2023-06-14T05:52:26;101660.31;;;23.12;37.77
76022;BME280;64718;52.124;6.226;2023-06-14T05:54:53;101661.13;;;23.24;37.40
76022;BME280;64718;52.124;6.226;2023-06-14T05:57:20;101660.03;;;23.79;36.81
76022;BME280;64718;52.124;6.226;2023-06-14T05:59:47;101676.97;;;23.46;36.84
76022;BME280;64718;52.124;6.226;2023-06-14T06:02:15;101675.47;;;23.32;37.23
76022;BME280;64718;52.124;6.226;2023-06-14T06:04:42;101669.56;;;23.82;37.27
76022;BME280;64718;52.124;6.226;2023-06-14T06:07:08;101667.44;;;24.27;36.49
76022;BME280;64718;52.124;6.226;2023-06-14T06:09:35;101668.63;;;24.34;35.29
76022;BME280;64718;52.124;6.226;2023-06-14T06:12:02;101672.16;;;24.23;35.77
76022;BME280;64718;52.124;6.226;2023-06-14T06:14:28;101677.59;;;24.43;35.36
76022;BME280;64718;52.124;6.226;2023-06-14T06:16:56;101672.50;;;24.70;34.60
76022;BME280;64718;52.124;6.226;2023-06-14T06:19:23;101671.50;;;24.71;34.46
76022;BME280;64718;52.124;6.226;2023-06-14T06:21:49;101684.97;;;24.70;34.64
76022;BME280;64718;52.124;6.226;2023-06-14T06:24:16;101678.91;;;24.27;35.00
76022;BME280;64718;52.124;6.226;2023-06-14T06:26:42;101684.69;;;24.33;35.35
76022;BME280;64718;52.124;6.226;2023-06-14T06:29:09;101690.41;;;24.99;34.05
76022;BME280;64718;52.124;6.226;2023-06-14T06:31:36;101683.41;;;25.46;33.91
76022;BME280;64718;52.124;6.226;2023-06-14T06:34:04;101679.84;;;24.87;34.31
76022;BME280;64718;52.124;6.226;2023-06-14T06:36:31;101684.25;;;25.66;32.48
76022;BME280;64718;52.124;6.226;2023-06-14T06:38:57;101692.78;;;25.79;32.75
76022;BME280;64718;52.124;6.226;2023-06-14T06:41:24;101694.19;;;25.35;33.03
76022;BME280;64718;52.124;6.226;2023-06-14T06:43:50;101694.59;;;25.88;32.50
76022;BME280;64718;52.124;6.226;2023-06-14T06:46:17;101699.91;;;25.98;32.39
76022;BME280;64718;52.124;6.226;2023-06-14T06:48:44;101706.38;;;26.05;31.21
76022;BME280;64718;52.124;6.226;2023-06-14T06:51:12;101705.84;;;25.63;31.81
76022;BME280;64718;52.124;6.226;2023-06-14T06:53:41;101701.59;;;26.08;31.22
76022;BME280;64718;52.124;6.226;2023-06-14T06:56:08;101700.66;;;25.80;31.27
76022;BME280;64718;52.124;6.226;2023-06-14T06:58:34;101701.34;;;25.82;31.09
76022;BME280;64718;52.124;6.226;2023-06-14T07:01:01;101701.56;;;26.18;31.23
76022;BME280;64718;52.124;6.226;2023-06-14T07:06:03;101704.66;;;26.51;30.66
76022;BME280;64718;52.124;6.226;2023-06-14T07:08:31;101716.16;;;26.61;30.50
76022;BME280;64718;52.124;6.226;2023-06-14T07:10:58;101712.38;;;26.54;30.91
76022;BME280;64718;52.124;6.226;2023-06-14T07:13:24;101715.91;;;26.54;30.23
76022;BME280;64718;52.124;6.226;2023-06-14T07:15:54;101725.59;;;26.83;30.44
76022;BME280;64718;52.124;6.226;2023-06-14T07:18:21;101728.25;;;26.55;30.38
76022;BME280;64718;52.124;6.226;2023-06-14T07:20:47;101732.75;;;26.55;29.82
76022;BME280;64718;52.124;6.226;2023-06-14T07:23:14;101733.19;;;25.94;30.95
76022;BME280;64718;52.124;6.226;2023-06-14T07:25:42;101727.63;;;26.98;30.47
76022;BME280;64718;52.124;6.226;2023-06-14T07:28:08;101725.81;;;26.34;30.15
76022;BME280;64718;52.124;6.226;2023-06-14T07:30:35;101727.03;;;26.77;29.93
76022;BME280;64718;52.124;6.226;2023-06-14T07:33:01;101735.72;;;26.05;30.59
76022;BME280;64718;52.124;6.226;2023-06-14T07:35:28;101740.47;;;26.58;29.87
76022;BME280;64718;52.124;6.226;2023-06-14T07:37:54;101732.22;;;25.85;30.50
76022;BME280;64718;52.124;6.226;2023-06-14T07:40:21;101730.22;;;26.06;31.19
76022;BME280;64718;52.124;6.226;2023-06-14T07:42:49;101726.97;;;26.87;30.16
76022;BME280;64718;52.124;6.226;2023-06-14T07:45:16;101729.50;;;26.88;29.97
76022;BME280;64718;52.124;6.226;2023-06-14T07:47:43;101733.41;;;27.21;29.59
76022;BME280;64718;52.124;6.226;2023-06-14T07:50:09;101721.31;;;28.14;28.67
76022;BME280;64718;52.124;6.226;2023-06-14T07:52:36;101732.41;;;27.40;28.54
76022;BME280;64718;52.124;6.226;2023-06-14T07:55:04;101734.44;;;26.83;29.54
76022;BME280;64718;52.124;6.226;2023-06-14T07:57:30;101730.91;;;25.99;30.22
76022;BME280;64718;52.124;6.226;2023-06-14T07:59:58;101735.09;;;26.95;29.75
76022;BME280;64718;52.124;6.226;2023-06-14T08:02:25;101739.28;;;27.25;28.33
76022;BME280;64718;52.124;6.226;2023-06-14T08:04:51;101744.19;;;27.83;28.65
76022;BME280;64718;52.124;6.226;2023-06-14T08:07:18;101734.72;;;27.70;28.87
76022;BME280;64718;52.124;6.226;2023-06-14T08:09:45;101739.69;;;28.09;28.80
76022;BME280;64718;52.124;6.226;2023-06-14T08:12:11;101742.78;;;27.96;28.52
76022;BME280;64718;52.124;6.226;2023-06-14T08:14:39;101741.75;;;27.36;28.72
76022;BME280;64718;52.124;6.226;2023-06-14T08:17:07;101744.81;;;27.77;29.07
76022;BME280;64718;52.124;6.226;2023-06-14T08:19:33;101735.22;;;28.18;28.51
76022;BME280;64718;52.124;6.226;2023-06-14T08:22:00;101735.41;;;27.72;28.18
76022;BME280;64718;52.124;6.226;2023-06-14T08:24:27;101734.94;;;26.96;29.23
76022;BME280;64718;52.124;6.226;2023-06-14T08:26:54;101736.47;;;26.71;29.43
76022;BME280;64718;52.124;6.226;2023-06-14T08:29:21;101732.50;;;27.48;28.66
76022;BME280;64718;52.124;6.226;2023-06-14T08:31:48;101740.22;;;27.87;28.16
76022;BME280;64718;52.124;6.226;2023-06-14T08:34:16;101725.56;;;27.37;28.71
76022;BME280;64718;52.124;6.226;2023-06-14T08:36:42;101729.06;;;27.38;29.29
76022;BME280;64718;52.124;6.226;2023-06-14T08:39:09;101730.03;;;27.72;28.25
76022;BME280;64718;52.124;6.226;2023-06-14T08:41:35;101725.19;;;28.20;28.00
76022;BME280;64718;52.124;6.226;2023-06-14T08:44:02;101737.06;;;27.73;27.80
76022;BME280;64718;52.124;6.226;2023-06-14T08:46:31;101732.53;;;27.03;28.71
76022;BME280;64718;52.124;6.226;2023-06-14T08:48:59;101731.16;;;27.17;29.04
76022;BME280;64718;52.124;6.226;2023-06-14T08:51:31;101727.53;;;27.35;29.06
76022;BME280;64718;52.124;6.226;2023-06-14T08:53:59;101723.53;;;27.57;28.29
76022;BME280;64718;52.124;6.226;2023-06-14T08:56:27;101722.09;;;27.09;28.45
76022;BME280;64718;52.124;6.226;2023-06-14T08:58:54;101721.53;;;27.06;28.32
76022;BME280;64718;52.124;6.226;2023-06-14T09:01:21;101714.25;;;27.44;28.30
76022;BME280;64718;52.124;6.226;2023-06-14T09:03:49;101721.25;;;27.09;28.89
76022;BME280;64718;52.124;6.226;2023-06-14T09:06:16;101717.47;;;27.29;28.65
76022;BME280;64718;52.124;6.226;2023-06-14T09:08:46;101724.09;;;27.25;28.32
76022;BME280;64718;52.124;6.226;2023-06-14T09:11:14;101719.75;;;27.24;27.91
76022;BME280;64718;52.124;6.226;2023-06-14T09:13:42;101724.00;;;27.53;27.63
76022;BME280;64718;52.124;6.226;2023-06-14T09:16:09;101719.34;;;27.72;27.24
76022;BME280;64718;52.124;6.226;2023-06-14T09:18:37;101715.25;;;27.42;26.73
76022;BME280;64718;52.124;6.226;2023-06-14T09:21:05;101721.50;;;27.69;26.73
76022;BME280;64718;52.124;6.226;2023-06-14T09:23:33;101722.19;;;27.53;27.33
76022;BME280;64718;52.124;6.226;2023-06-14T09:26:06;101725.41;;;27.21;28.21
76022;BME280;64718;52.124;6.226;2023-06-14T09:28:33;101717.75;;;27.62;27.44
76022;BME280;64718;52.124;6.226;2023-06-14T09:31:00;101724.31;;;27.50;27.99
76022;BME280;64718;52.124;6.226;2023-06-14T09:33:27;101721.25;;;27.45;26.94
76022;BME280;64718;52.124;6.226;2023-06-14T09:35:54;101712.03;;;27.39;27.35
76022;BME280;64718;52.124;6.226;2023-06-14T09:38:20;101722.69;;;27.03;27.79
76022;BME280;64718;52.124;6.226;2023-06-14T09:40:47;101722.66;;;27.31;27.82
76022;BME280;64718;52.124;6.226;2023-06-14T09:43:15;101726.63;;;27.45;27.30
76022;BME280;64718;52.124;6.226;2023-06-14T09:45:41;101727.66;;;27.16;27.07
76022;BME280;64718;52.124;6.226;2023-06-14T09:48:11;101731.63;;;27.12;27.81
76022;BME280;64718;52.124;6.226;2023-06-14T09:50:44;101726.88;;;27.06;27.32
76022;BME280;64718;52.124;6.226;2023-06-14T09:53:11;101730.94;;;27.10;27.54
76022;BME280;64718;52.124;6.226;2023-06-14T09:55:40;101729.94;;;27.11;27.41
76022;BME280;64718;52.124;6.226;2023-06-14T09:58:08;101727.91;;;26.40;26.80
76022;BME280;64718;52.124;6.226;2023-06-14T10:00:39;101733.81;;;26.34;27.93
76022;BME280;64718;52.124;6.226;2023-06-14T10:03:11;101739.03;;;26.16;28.07
76022;BME280;64718;52.124;6.226;2023-06-14T10:05:40;101727.69;;;26.14;27.54
76022;BME280;64718;52.124;6.226;2023-06-14T10:08:09;101736.75;;;26.31;27.90
76022;BME280;64718;52.124;6.226;2023-06-14T10:10:38;101735.50;;;26.26;28.50
76022;BME280;64718;52.124;6.226;2023-06-14T10:13:05;101738.09;;;26.08;28.38
76022;BME280;64718;52.124;6.226;2023-06-14T10:15:45;101750.38;;;26.38;28.61
76022;BME280;64718;52.124;6.226;2023-06-14T10:18:18;101740.16;;;26.24;27.58
76022;BME280;64718;52.124;6.226;2023-06-14T10:20:53;101721.97;;;25.90;28.18
76022;BME280;64718;52.124;6.226;2023-06-14T10:23:23;101740.78;;;25.69;28.63
76022;BME280;64718;52.124;6.226;2023-06-14T10:25:54;101730.00;;;25.71;28.59
76022;BME280;64718;52.124;6.226;2023-06-14T10:28:22;101728.88;;;25.73;29.51
76022;BME280;64718;52.124;6.226;2023-06-14T10:31:08;101728.69;;;26.04;29.69
76022;BME280;64718;52.124;6.226;2023-06-14T10:33:36;101730.69;;;25.73;30.24
76022;BME280;64718;52.124;6.226;2023-06-14T10:38:57;101734.06;;;25.75;29.85
76022;BME280;64718;52.124;6.226;2023-06-14T10:41:24;101726.34;;;25.72;28.89
76022;BME280;64718;52.124;6.226;2023-06-14T10:43:52;101739.78;;;25.80;29.52
76022;BME280;64718;52.124;6.226;2023-06-14T10:46:38;101738.28;;;25.68;29.74
76022;BME280;64718;52.124;6.226;2023-06-14T10:49:04;101742.00;;;25.94;30.55
76022;BME280;64718;52.124;6.226;2023-06-14T10:51:38;101736.41;;;26.07;29.17
76022;BME280;64718;52.124;6.226;2023-06-14T10:54:11;101736.53;;;25.96;29.56
76022;BME280;64718;52.124;6.226;2023-06-14T10:56:46;101733.47;;;25.81;29.45
76022;BME280;64718;52.124;6.226;2023-06-14T10:59:12;101739.25;;;25.76;29.65
76022;BME280;64718;52.124;6.226;2023-06-14T11:01:57;101734.19;;;25.73;28.94
76022;BME280;64718;52.124;6.226;2023-06-14T11:04:31;101730.66;;;25.53;30.11
76022;BME280;64718;52.124;6.226;2023-06-14T11:07:21;101734.31;;;25.91;29.67
76022;BME280;64718;52.124;6.226;2023-06-14T11:10:09;101728.00;;;25.92;29.15
76022;BME280;64718;52.124;6.226;2023-06-14T11:12:37;101729.09;;;26.09;29.08
76022;BME280;64718;52.124;6.226;2023-06-14T11:15:08;101723.88;;;26.17;28.99
76022;BME280;64718;52.124;6.226;2023-06-14T11:17:36;101726.88;;;26.04;29.57
76022;BME280;64718;52.124;6.226;2023-06-14T11:20:09;101727.41;;;26.08;29.68
76022;BME280;64718;52.124;6.226;2023-06-14T11:22:39;101723.91;;;26.07;30.61
76022;BME280;64718;52.124;6.226;2023-06-14T11:25:08;101729.94;;;26.09;30.39
76022;BME280;64718;52.124;6.226;2023-06-14T11:27:35;101725.22;;;26.31;30.16
76022;BME280;64718;52.124;6.226;2023-06-14T11:30:02;101735.75;;;26.32;30.86
76022;BME280;64718;52.124;6.226;2023-06-14T11:32:31;101737.94;;;26.09;30.48
76022;BME280;64718;52.124;6.226;2023-06-14T11:34:59;101723.03;;;26.16;31.06
76022;BME280;64718;52.124;6.226;2023-06-14T11:37:26;101720.03;;;26.29;30.18
76022;BME280;64718;52.124;6.226;2023-06-14T11:39:56;101715.41;;;26.41;30.09
76022;BME280;64718;52.124;6.226;2023-06-14T11:42:22;101721.34;;;26.15;29.64
76022;BME280;64718;52.124;6.226;2023-06-14T11:44:49;101712.09;;;26.57;30.18
76022;BME280;64718;52.124;6.226;2023-06-14T11:47:16;101712.53;;;26.52;30.60
76022;BME280;64718;52.124;6.226;2023-06-14T11:49:42;101709.88;;;26.79;28.85
76022;BME280;64718;52.124;6.226;2023-06-14T11:52:11;101711.63;;;26.98;29.88
76022;BME280;64718;52.124;6.226;2023-06-14T11:54:37;101717.94;;;26.70;28.74
76022;BME280;64718;52.124;6.226;2023-06-14T11:57:06;101727.59;;;26.43;29.88
76022;BME280;64718;52.124;6.226;2023-06-14T11:59:37;101715.34;;;26.51;30.77
76022;BME280;64718;52.124;6.226;2023-06-14T12:02:04;101716.72;;;26.55;29.76
76022;BME280;64718;52.124;6.226;2023-06-14T12:04:30;101722.91;;;26.55;28.99
76022;BME280;64718;52.124;6.226;2023-06-14T12:06:57;101721.22;;;26.54;29.89
76022;BME280;64718;52.124;6.226;2023-06-14T12:09:25;101722.91;;;26.55;28.97
76022;BME280;64718;52.124;6.226;2023-06-14T12:11:59;101723.53;;;26.76;28.94
76022;BME280;64718;52.124;6.226;2023-06-14T12:14:28;101723.09;;;26.81;28.05
76022;BME280;64718;52.124;6.226;2023-06-14T12:17:04;101725.38;;;26.94;28.38
76022;BME280;64718;52.124;6.226;2023-06-14T12:19:31;101719.34;;;26.37;28.05
76022;BME280;64718;52.124;6.226;2023-06-14T12:21:59;101724.88;;;26.63;29.25
76022;BME280;64718;52.124;6.226;2023-06-14T12:24:31;101717.28;;;26.86;28.59
76022;BME280;64718;52.124;6.226;2023-06-14T12:26:58;101725.06;;;27.06;28.47
76022;BME280;64718;52.124;6.226;2023-06-14T12:29:25;101730.50;;;26.87;26.71
76022;BME280;64718;52.124;6.226;2023-06-14T12:31:52;101716.16;;;26.88;27.64
76022;BME280;64718;52.124;6.226;2023-06-14T12:34:21;101722.25;;;26.81;28.76
76022;BME280;64718;52.124;6.226;2023-06-14T12:36:49;101717.09;;;26.69;28.57
76022;BME280;64718;52.124;6.226;2023-06-14T12:39:16;101709.56;;;27.10;28.52
76022;BME280;64718;52.124;6.226;2023-06-14T12:41:44;101715.03;;;27.18;27.50
76022;BME280;64718;52.124;6.226;2023-06-14T12:44:11;101711.19;;;27.38;27.68
76022;BME280;64718;52.124;6.226;2023-06-14T12:46:37;101710.72;;;27.79;27.60
76022;BME280;64718;52.124;6.226;2023-06-14T12:49:05;101709.34;;;27.75;28.11
76022;BME280;64718;52.124;6.226;2023-06-14T12:51:31;101712.94;;;27.48;27.58
76022;BME280;64718;52.124;6.226;2023-06-14T12:53:58;101712.63;;;27.68;27.99
76022;BME280;64718;52.124;6.226;2023-06-14T12:56:25;101710.13;;;27.67;27.14
76022;BME280;64718;52.124;6.226;2023-06-14T12:58:53;101711.47;;;27.71;27.20